sensor_id;sensor_type;location;lat;lon;timestamp;pressure;altitude;pressure_sealevel;temperature;humidity
5755;BME280;2902;42.130;24.732;2023-05-24T00:00:45;99204.69;;;17.58;85.28
5755;BME280;2902;42.130;24.732;2023-05-24T00:03:12;99204.97;;;17.40;84.66
5755;BME280;2902;42.130;24.732;2023-05-24T00:05:39;99203.19;;;17.45;86.19
5755;BME280;2902;42.130;24.732;2023-05-24T00:08:06;99203.75;;;17.47;85.25
5755;BME280;2902;42.130;24.732;2023-05-24T00:10:33;99204.50;;;17.43;84.63
5755;BME280;2902;42.130;24.732;2023-05-24T00:12:59;99190.34;;;17.31;85.28
5755;BME280;2902;42.130;24.732;2023-05-24T00:15:26;99191.31;;;17.25;86.22
5755;BME280;2902;42.130;24.732;2023-05-24T00:17:54;99189.50;;;17.14;85.45
5755;BME280;2902;42.130;24.732;2023-05-24T00:20:21;99195.88;;;17.08;86.54
5755;BME280;2902;42.130;24.732;2023-05-24T00:22:48;99198.81;;;17.06;86.92
5755;BME280;2902;42.130;24.732;2023-05-24T00:25:14;99196.44;;;17.10;86.81
5755;BME280;2902;42.130;24.732;2023-05-24T00:27:41;99188.13;;;17.11;87.03
5755;BME280;2902;42.130;24.732;2023-05-24T00:30:08;99197.25;;;17.27;86.67
5755;BME280;2902;42.130;24.732;2023-05-24T00:32:35;99196.84;;;17.35;86.26
5755;BME280;2902;42.130;24.732;2023-05-24T00:35:04;99196.75;;;17.46;85.40
5755;BME280;2902;42.130;24.732;2023-05-24T00:37:30;99199.56;;;17.56;84.91
5755;BME280;2902;42.130;24.732;2023-05-24T00:39:57;99201.53;;;17.61;85.26
5755;BME280;2902;42.130;24.732;2023-05-24T00:42:24;99192.47;;;17.67;84.86
5755;BME280;2902;42.130;24.732;2023-05-24T00:44:51;99201.34;;;17.67;84.10
5755;BME280;2902;42.130;24.732;2023-05-24T00:47:17;99194.53;;;17.60;84.30
5755;BME280;2902;42.130;24.732;2023-05-24T00:49:44;99192.22;;;17.47;84.64
5755;BME280;2902;42.130;24.732;2023-05-24T00:52:13;99181.53;;;17.35;86.17
5755;BME280;2902;42.130;24.732;2023-05-24T00:54:39;99177.34;;;17.23;85.84
5755;BME280;2902;42.130;24.732;2023-05-24T00:57:06;99169.53;;;17.05;86.51
5755;BME280;2902;42.130;24.732;2023-05-24T00:59:33;99170.34;;;16.89;87.12
5755;BME280;2902;42.130;24.732;2023-05-24T01:02:00;99170.34;;;16.89;88.18
5755;BME280;2902;42.130;24.732;2023-05-24T01:04:27;99173.19;;;16.82;88.89
5755;BME280;2902;42.130;24.732;2023-05-24T01:07:05;99170.75;;;16.81;88.09
5755;BME280;2902;42.130;24.732;2023-05-24T01:09:48;99167.44;;;16.74;89.20
5755;BME280;2902;42.130;24.732;2023-05-24T01:12:22;99159.28;;;16.69;89.39
5755;BME280;2902;42.130;24.732;2023-05-24T01:14:59;99159.47;;;16.79;89.95
5755;BME280;2902;42.130;24.732;2023-05-24T01:17:35;99158.16;;;16.81;88.12
5755;BME280;2902;42.130;24.732;2023-05-24T01:20:08;99165.50;;;16.86;88.80
5755;BME280;2902;42.130;24.732;2023-05-24T01:28:17;99154.22;;;16.56;89.28
5755;BME280;2902;42.130;24.732;2023-05-24T01:30:44;99156.84;;;16.51;88.73
5755;BME280;2902;42.130;24.732;2023-05-24T01:33:11;99148.41;;;16.42;88.67
5755;BME280;2902;42.130;24.732;2023-05-24T01:35:38;99150.13;;;16.37;88.57
5755;BME280;2902;42.130;24.732;2023-05-24T01:38:07;99161.81;;;16.31;88.40
5755;BME280;2902;42.130;24.732;2023-05-24T01:40:34;99151.72;;;16.21;88.92
5755;BME280;2902;42.130;24.732;2023-05-24T01:43:06;99154.66;;;16.20;89.59
5755;BME280;2902;42.130;24.732;2023-05-24T01:45:43;99155.22;;;16.22;89.27
5755;BME280;2902;42.130;24.732;2023-05-24T01:48:18;99152.16;;;16.30;90.53
5755;BME280;2902;42.130;24.732;2023-05-24T01:50:52;99159.03;;;16.26;88.25
5755;BME280;2902;42.130;24.732;2023-05-24T01:53:22;99154.16;;;16.23;88.93
5755;BME280;2902;42.130;24.732;2023-05-24T01:55:53;99159.19;;;16.19;87.32
5755;BME280;2902;42.130;24.732;2023-05-24T01:58:21;99158.50;;;16.12;88.10
5755;BME280;2902;42.130;24.732;2023-05-24T02:00:50;99163.69;;;16.02;88.05
5755;BME280;2902;42.130;24.732;2023-05-24T02:03:17;99170.81;;;15.97;88.88
5755;BME280;2902;42.130;24.732;2023-05-24T02:05:45;99171.97;;;16.01;89.40
5755;BME280;2902;42.130;24.732;2023-05-24T02:08:12;99167.13;;;16.14;89.19
5755;BME280;2902;42.130;24.732;2023-05-24T02:10:39;99173.50;;;16.25;87.77
5755;BME280;2902;42.130;24.732;2023-05-24T02:13:06;99180.19;;;16.39;87.30
5755;BME280;2902;42.130;24.732;2023-05-24T02:15:34;99179.91;;;16.52;86.11
5755;BME280;2902;42.130;24.732;2023-05-24T02:18:03;99187.25;;;16.56;85.64
5755;BME280;2902;42.130;24.732;2023-05-24T02:20:32;99197.13;;;16.56;85.08
5755;BME280;2902;42.130;24.732;2023-05-24T02:23:01;99199.75;;;16.51;85.07
5755;BME280;2902;42.130;24.732;2023-05-24T02:25:28;99196.09;;;16.57;85.57
5755;BME280;2902;42.130;24.732;2023-05-24T02:27:55;99203.69;;;16.76;86.16
5755;BME280;2902;42.130;24.732;2023-05-24T02:30:22;99204.19;;;16.90;85.92
5755;BME280;2902;42.130;24.732;2023-05-24T02:32:49;99213.44;;;16.99;83.38
5755;BME280;2902;42.130;24.732;2023-05-24T02:35:18;99212.69;;;17.03;84.10
5755;BME280;2902;42.130;24.732;2023-05-24T02:37:46;99205.47;;;17.04;84.24
5755;BME280;2902;42.130;24.732;2023-05-24T02:40:13;99202.31;;;17.07;83.53
5755;BME280;2902;42.130;24.732;2023-05-24T02:42:40;99210.03;;;17.03;83.20
5755;BME280;2902;42.130;24.732;2023-05-24T02:45:07;99218.81;;;16.99;82.21
5755;BME280;2902;42.130;24.732;2023-05-24T02:47:34;99218.47;;;16.95;82.69
5755;BME280;2902;42.130;24.732;2023-05-24T02:50:00;99220.13;;;16.96;83.29
5755;BME280;2902;42.130;24.732;2023-05-24T02:52:28;99232.78;;;17.01;83.01
5755;BME280;2902;42.130;24.732;2023-05-24T02:54:55;99232.31;;;17.04;82.86
5755;BME280;2902;42.130;24.732;2023-05-24T02:57:22;99242.72;;;17.00;82.17
5755;BME280;2902;42.130;24.732;2023-05-24T02:59:48;99232.25;;;16.99;82.63
5755;BME280;2902;42.130;24.732;2023-05-24T03:02:15;99221.03;;;17.02;83.04
5755;BME280;2902;42.130;24.732;2023-05-24T03:04:43;99226.22;;;17.08;83.22
5755;BME280;2902;42.130;24.732;2023-05-24T03:07:10;99229.53;;;17.15;83.48
5755;BME280;2902;42.130;24.732;2023-05-24T03:09:39;99235.97;;;17.14;82.32
5755;BME280;2902;42.130;24.732;2023-05-24T03:12:06;99233.44;;;17.08;82.30
5755;BME280;2902;42.130;24.732;2023-05-24T03:14:33;99225.97;;;17.10;82.15
5755;BME280;2902;42.130;24.732;2023-05-24T03:17:00;99232.47;;;17.14;83.16
5755;BME280;2902;42.130;24.732;2023-05-24T03:19:27;99225.56;;;17.18;83.71
5755;BME280;2902;42.130;24.732;2023-05-24T03:21:53;99224.91;;;17.27;83.13
5755;BME280;2902;42.130;24.732;2023-05-24T03:24:20;99231.16;;;17.33;82.67
5755;BME280;2902;42.130;24.732;2023-05-24T03:26:48;99231.75;;;17.35;81.62
5755;BME280;2902;42.130;24.732;2023-05-24T03:29:15;99238.84;;;17.41;81.85
5755;BME280;2902;42.130;24.732;2023-05-24T03:31:42;99239.41;;;17.43;82.29
5755;BME280;2902;42.130;24.732;2023-05-24T03:34:08;99232.28;;;17.37;82.22
5755;BME280;2902;42.130;24.732;2023-05-24T03:36:35;99225.78;;;17.33;81.73
5755;BME280;2902;42.130;24.732;2023-05-24T03:39:02;99234.59;;;17.45;82.45
5755;BME280;2902;42.130;24.732;2023-05-24T03:41:28;99228.31;;;17.56;82.02
5755;BME280;2902;42.130;24.732;2023-05-24T03:43:57;99233.34;;;17.69;81.47
5755;BME280;2902;42.130;24.732;2023-05-24T03:46:23;99225.09;;;17.75;81.16
5755;BME280;2902;42.130;24.732;2023-05-24T03:48:50;99218.56;;;17.88;81.33
5755;BME280;2902;42.130;24.732;2023-05-24T03:51:17;99211.53;;;18.30;84.63
5755;BME280;2902;42.130;24.732;2023-05-24T03:53:43;99227.88;;;19.03;81.54
5755;BME280;2902;42.130;24.732;2023-05-24T03:56:10;99239.19;;;19.73;77.91
5755;BME280;2902;42.130;24.732;2023-05-24T03:58:37;99245.09;;;20.16;73.22
5755;BME280;2902;42.130;24.732;2023-05-24T04:01:05;99250.91;;;20.70;70.72
5755;BME280;2902;42.130;24.732;2023-05-24T04:03:32;99266.91;;;21.57;67.55
5755;BME280;2902;42.130;24.732;2023-05-24T04:05:59;99264.38;;;22.15;63.73
5755;BME280;2902;42.130;24.732;2023-05-24T04:08:25;99267.84;;;23.18;61.45
5755;BME280;2902;42.130;24.732;2023-05-24T04:10:52;99281.84;;;24.20;57.29
5755;BME280;2902;42.130;24.732;2023-05-24T04:13:19;99274.56;;;24.81;52.97
5755;BME280;2902;42.130;24.732;2023-05-24T04:15:46;99276.00;;;25.62;52.02
5755;BME280;2902;42.130;24.732;2023-05-24T04:18:14;99262.69;;;26.19;50.31
5755;BME280;2902;42.130;24.732;2023-05-24T04:20:41;99273.97;;;26.67;45.80
5755;BME280;2902;42.130;24.732;2023-05-24T04:23:07;99283.00;;;27.25;45.09
5755;BME280;2902;42.130;24.732;2023-05-24T04:25:34;99272.81;;;27.39;45.43
5755;BME280;2902;42.130;24.732;2023-05-24T04:28:01;99271.25;;;27.68;42.89
5755;BME280;2902;42.130;24.732;2023-05-24T04:30:28;99264.22;;;28.06;41.85
5755;BME280;2902;42.130;24.732;2023-05-24T04:32:55;99262.47;;;28.10;42.58
5755;BME280;2902;42.130;24.732;2023-05-24T04:35:24;99255.13;;;28.19;40.71
5755;BME280;2902;42.130;24.732;2023-05-24T04:37:51;99250.50;;;28.37;40.96
5755;BME280;2902;42.130;24.732;2023-05-24T04:40:18;99245.31;;;28.74;41.46
5755;BME280;2902;42.130;24.732;2023-05-24T04:42:47;99256.50;;;28.47;38.99
5755;BME280;2902;42.130;24.732;2023-05-24T04:45:13;99255.06;;;27.72;40.59
5755;BME280;2902;42.130;24.732;2023-05-24T04:47:40;99253.91;;;27.20;41.56
5755;BME280;2902;42.130;24.732;2023-05-24T04:50:08;99242.09;;;26.89;42.30
5755;BME280;2902;42.130;24.732;2023-05-24T04:52:36;99236.41;;;26.64;43.20
5755;BME280;2902;42.130;24.732;2023-05-24T04:55:03;99208.09;;;26.38;42.24
5755;BME280;2902;42.130;24.732;2023-05-24T04:57:30;99246.38;;;26.82;43.01
5755;BME280;2902;42.130;24.732;2023-05-24T04:59:56;99250.56;;;27.23;41.59
5755;BME280;2902;42.130;24.732;2023-05-24T05:02:23;99252.97;;;27.47;41.11
5755;BME280;2902;42.130;24.732;2023-05-24T05:04:51;99254.13;;;27.24;42.02
5755;BME280;2902;42.130;24.732;2023-05-24T05:07:18;99257.16;;;27.22;41.11
5755;BME280;2902;42.130;24.732;2023-05-24T05:09:46;99254.59;;;26.68;42.74
5755;BME280;2902;42.130;24.732;2023-05-24T05:12:13;99252.22;;;27.11;43.01
5755;BME280;2902;42.130;24.732;2023-05-24T05:14:40;99260.84;;;27.48;41.00
5755;BME280;2902;42.130;24.732;2023-05-24T05:17:07;99265.31;;;27.44;41.30
5755;BME280;2902;42.130;24.732;2023-05-24T05:19:34;99271.31;;;27.55;41.51
5755;BME280;2902;42.130;24.732;2023-05-24T05:22:01;99264.56;;;28.05;40.53
5755;BME280;2902;42.130;24.732;2023-05-24T05:24:27;99267.34;;;28.22;40.58
5755;BME280;2902;42.130;24.732;2023-05-24T05:26:55;99272.34;;;28.28;39.89
5755;BME280;2902;42.130;24.732;2023-05-24T05:29:22;99262.19;;;28.85;38.84
5755;BME280;2902;42.130;24.732;2023-05-24T05:31:49;99263.78;;;29.46;38.09
5755;BME280;2902;42.130;24.732;2023-05-24T05:34:15;99267.72;;;29.91;36.91
5755;BME280;2902;42.130;24.732;2023-05-24T05:36:42;99276.38;;;30.10;36.05
5755;BME280;2902;42.130;24.732;2023-05-24T05:39:09;99276.09;;;30.40;35.24
5755;BME280;2902;42.130;24.732;2023-05-24T05:41:37;99278.72;;;30.28;35.42
5755;BME280;2902;42.130;24.732;2023-05-24T05:44:06;99280.94;;;30.64;35.56
5755;BME280;2902;42.130;24.732;2023-05-24T05:46:33;99278.06;;;30.89;34.93
5755;BME280;2902;42.130;24.732;2023-05-24T05:48:59;99284.69;;;31.09;34.56
5755;BME280;2902;42.130;24.732;2023-05-24T05:51:26;99274.97;;;31.11;34.43
5755;BME280;2902;42.130;24.732;2023-05-24T05:53:53;99274.84;;;31.28;33.99
5755;BME280;2902;42.130;24.732;2023-05-24T05:56:20;99276.03;;;30.98;34.73
5755;BME280;2902;42.130;24.732;2023-05-24T05:58:46;99271.66;;;30.56;35.14
5755;BME280;2902;42.130;24.732;2023-05-24T06:01:15;99273.31;;;30.11;36.08
5755;BME280;2902;42.130;24.732;2023-05-24T06:03:42;99275.78;;;30.33;35.14
5755;BME280;2902;42.130;24.732;2023-05-24T06:06:09;99274.78;;;30.00;35.74
5755;BME280;2902;42.130;24.732;2023-05-24T06:08:35;99283.31;;;29.61;37.42
5755;BME280;2902;42.130;24.732;2023-05-24T06:11:05;99291.81;;;29.68;37.24
5755;BME280;2902;42.130;24.732;2023-05-24T06:13:32;99287.25;;;29.89;36.86
5755;BME280;2902;42.130;24.732;2023-05-24T06:15:59;99276.44;;;29.84;36.50
5755;BME280;2902;42.130;24.732;2023-05-24T06:18:27;99276.91;;;29.95;36.50
5755;BME280;2902;42.130;24.732;2023-05-24T06:20:54;99292.16;;;29.41;37.64
5755;BME280;2902;42.130;24.732;2023-05-24T06:23:21;99291.81;;;28.83;39.68
5755;BME280;2902;42.130;24.732;2023-05-24T06:25:48;99280.81;;;28.57;40.91
5755;BME280;2902;42.130;24.732;2023-05-24T06:28:15;99291.78;;;28.74;40.67
5755;BME280;2902;42.130;24.732;2023-05-24T06:30:42;99289.69;;;28.63;41.10
5755;BME280;2902;42.130;24.732;2023-05-24T06:33:09;99295.00;;;28.85;40.69
5755;BME280;2902;42.130;24.732;2023-05-24T06:35:38;99300.13;;;28.78;40.48
5755;BME280;2902;42.130;24.732;2023-05-24T06:38:05;99275.88;;;28.76;40.51
5755;BME280;2902;42.130;24.732;2023-05-24T06:40:32;99290.53;;;28.80;39.96
5755;BME280;2902;42.130;24.732;2023-05-24T06:42:58;99287.78;;;28.89;40.89
5755;BME280;2902;42.130;24.732;2023-05-24T06:45:25;99290.53;;;29.23;40.59
5755;BME280;2902;42.130;24.732;2023-05-24T06:47:52;99290.06;;;29.21;39.41
5755;BME280;2902;42.130;24.732;2023-05-24T06:50:19;99289.09;;;29.08;40.67
5755;BME280;2902;42.130;24.732;2023-05-24T06:52:48;99293.75;;;29.42;39.80
5755;BME280;2902;42.130;24.732;2023-05-24T06:55:16;99273.00;;;29.41;39.28
5755;BME280;2902;42.130;24.732;2023-05-24T06:57:42;99291.34;;;29.49;38.83
5755;BME280;2902;42.130;24.732;2023-05-24T07:00:10;99267.53;;;29.15;39.64
5755;BME280;2902;42.130;24.732;2023-05-24T07:02:37;99298.09;;;29.60;39.38
5755;BME280;2902;42.130;24.732;2023-05-24T07:05:05;99296.94;;;29.78;38.65
5755;BME280;2902;42.130;24.732;2023-05-24T07:07:36;99274.72;;;30.26;38.60
5755;BME280;2902;42.130;24.732;2023-05-24T07:10:06;99268.50;;;30.66;36.77
5755;BME280;2902;42.130;24.732;2023-05-24T07:12:34;99283.88;;;30.59;36.53
5755;BME280;2902;42.130;24.732;2023-05-24T07:15:01;99279.59;;;30.78;37.08
5755;BME280;2902;42.130;24.732;2023-05-24T07:17:28;99283.66;;;30.93;36.15
5755;BME280;2902;42.130;24.732;2023-05-24T07:19:55;99274.91;;;30.99;36.57
5755;BME280;2902;42.130;24.732;2023-05-24T07:22:22;99276.84;;;31.19;36.74
5755;BME280;2902;42.130;24.732;2023-05-24T07:24:49;99269.88;;;31.42;34.71
5755;BME280;2902;42.130;24.732;2023-05-24T07:27:18;99259.84;;;31.26;35.40
5755;BME280;2902;42.130;24.732;2023-05-24T07:29:44;99267.91;;;30.90;36.14
5755;BME280;2902;42.130;24.732;2023-05-24T07:32:11;99268.22;;;30.88;35.73
5755;BME280;2902;42.130;24.732;2023-05-24T07:34:38;99278.13;;;31.01;36.23
5755;BME280;2902;42.130;24.732;2023-05-24T07:37:05;99278.09;;;30.81;36.66
5755;BME280;2902;42.130;24.732;2023-05-24T07:39:32;99275.97;;;30.86;37.51
5755;BME280;2902;42.130;24.732;2023-05-24T07:41:59;99269.09;;;31.21;36.84
5755;BME280;2902;42.130;24.732;2023-05-24T07:44:27;99279.84;;;31.47;36.16
5755;BME280;2902;42.130;24.732;2023-05-24T07:46:54;99279.66;;;31.31;35.65
5755;BME280;2902;42.130;24.732;2023-05-24T07:49:21;99275.53;;;31.25;35.42
5755;BME280;2902;42.130;24.732;2023-05-24T07:51:48;99276.13;;;31.10;35.62
5755;BME280;2902;42.130;24.732;2023-05-24T07:54:15;99271.66;;;31.26;36.13
5755;BME280;2902;42.130;24.732;2023-05-24T07:56:41;99271.34;;;31.19;34.85
5755;BME280;2902;42.130;24.732;2023-05-24T07:59:09;99268.09;;;31.26;34.82
5755;BME280;2902;42.130;24.732;2023-05-24T08:01:37;99269.59;;;31.56;35.00
5755;BME280;2902;42.130;24.732;2023-05-24T08:04:04;99269.78;;;31.83;34.14
5755;BME280;2902;42.130;24.732;2023-05-24T08:06:32;99275.06;;;31.88;33.71
5755;BME280;2902;42.130;24.732;2023-05-24T08:08:59;99278.28;;;31.90;33.34
5755;BME280;2902;42.130;24.732;2023-05-24T08:11:26;99277.13;;;31.59;32.53
5755;BME280;2902;42.130;24.732;2023-05-24T08:13:53;99276.56;;;31.53;32.76
5755;BME280;2902;42.130;24.732;2023-05-24T08:16:19;99270.53;;;31.39;33.23
5755;BME280;2902;42.130;24.732;2023-05-24T08:18:47;99271.44;;;31.64;33.08
5755;BME280;2902;42.130;24.732;2023-05-24T08:21:14;99271.00;;;31.74;32.81
5755;BME280;2902;42.130;24.732;2023-05-24T08:23:42;99272.47;;;31.71;32.55
5755;BME280;2902;42.130;24.732;2023-05-24T08:26:09;99278.91;;;31.75;33.17
5755;BME280;2902;42.130;24.732;2023-05-24T08:28:35;99270.03;;;31.90;32.84
5755;BME280;2902;42.130;24.732;2023-05-24T08:31:02;99273.13;;;31.89;33.03
5755;BME280;2902;42.130;24.732;2023-05-24T08:33:29;99268.47;;;31.69;31.96
5755;BME280;2902;42.130;24.732;2023-05-24T08:35:57;99267.91;;;31.75;32.72
5755;BME280;2902;42.130;24.732;2023-05-24T08:38:24;99259.81;;;31.46;32.41
5755;BME280;2902;42.130;24.732;2023-05-24T08:40:51;99277.44;;;31.45;32.78
5755;BME280;2902;42.130;24.732;2023-05-24T08:43:18;99274.38;;;31.79;32.12
5755;BME280;2902;42.130;24.732;2023-05-24T08:45:47;99279.09;;;32.15;31.99
5755;BME280;2902;42.130;24.732;2023-05-24T08:48:16;99266.75;;;32.45;31.40
5755;BME280;2902;42.130;24.732;2023-05-24T08:50:44;99276.47;;;32.66;29.81
5755;BME280;2902;42.130;24.732;2023-05-24T08:53:13;99274.66;;;32.46;30.83
5755;BME280;2902;42.130;24.732;2023-05-24T08:55:40;99276.16;;;32.56;30.25
5755;BME280;2902;42.130;24.732;2023-05-24T08:58:08;99269.50;;;32.57;31.51
5755;BME280;2902;42.130;24.732;2023-05-24T09:00:35;99279.22;;;32.78;30.57
5755;BME280;2902;42.130;24.732;2023-05-24T09:03:04;99273.06;;;32.45;29.35
5755;BME280;2902;42.130;24.732;2023-05-24T09:05:31;99270.28;;;32.09;29.69
5755;BME280;2902;42.130;24.732;2023-05-24T09:07:59;99276.06;;;32.40;30.48
5755;BME280;2902;42.130;24.732;2023-05-24T09:10:28;99268.50;;;32.37;30.58
5755;BME280;2902;42.130;24.732;2023-05-24T09:12:56;99265.84;;;32.29;29.40
5755;BME280;2902;42.130;24.732;2023-05-24T09:15:23;99265.22;;;31.87;30.20
5755;BME280;2902;42.130;24.732;2023-05-24T09:17:50;99268.66;;;31.96;29.28
5755;BME280;2902;42.130;24.732;2023-05-24T09:20:17;99267.53;;;32.09;30.35
5755;BME280;2902;42.130;24.732;2023-05-24T09:22:44;99264.00;;;32.21;30.41
5755;BME280;2902;42.130;24.732;2023-05-24T09:25:14;99259.28;;;32.21;30.99
5755;BME280;2902;42.130;24.732;2023-05-24T09:27:45;99263.88;;;32.17;29.97
5755;BME280;2902;42.130;24.732;2023-05-24T09:30:14;99254.03;;;32.28;31.07
5755;BME280;2902;42.130;24.732;2023-05-24T09:32:53;99263.31;;;32.48;29.27
5755;BME280;2902;42.130;24.732;2023-05-24T09:35:20;99262.41;;;32.56;28.43
5755;BME280;2902;42.130;24.732;2023-05-24T09:37:47;99259.50;;;32.76;28.57
5755;BME280;2902;42.130;24.732;2023-05-24T09:40:17;99263.13;;;32.92;28.51
5755;BME280;2902;42.130;24.732;2023-05-24T09:42:45;99256.66;;;33.12;27.58
5755;BME280;2902;42.130;24.732;2023-05-24T09:45:16;99259.38;;;33.24;27.00
5755;BME280;2902;42.130;24.732;2023-05-24T09:47:43;99247.44;;;33.20;27.96
5755;BME280;2902;42.130;24.732;2023-05-24T09:50:12;99255.75;;;33.08;27.16
5755;BME280;2902;42.130;24.732;2023-05-24T09:52:39;99248.72;;;32.71;27.33
5755;BME280;2902;42.130;24.732;2023-05-24T09:55:11;99251.31;;;32.40;27.52
5755;BME280;2902;42.130;24.732;2023-05-24T09:57:38;99246.47;;;32.13;28.59
5755;BME280;2902;42.130;24.732;2023-05-24T10:00:08;99244.38;;;32.22;28.28
5755;BME280;2902;42.130;24.732;2023-05-24T10:02:41;99252.66;;;32.34;28.31
5755;BME280;2902;42.130;24.732;2023-05-24T10:05:09;99243.16;;;32.32;28.78
5755;BME280;2902;42.130;24.732;2023-05-24T10:07:36;99235.94;;;32.15;29.38
5755;BME280;2902;42.130;24.732;2023-05-24T10:10:04;99250.84;;;32.38;29.16
5755;BME280;2902;42.130;24.732;2023-05-24T10:12:32;99243.50;;;32.30;29.27
5755;BME280;2902;42.130;24.732;2023-05-24T10:15:00;99249.00;;;32.42;28.93
5755;BME280;2902;42.130;24.732;2023-05-24T10:17:29;99242.31;;;32.55;28.49
5755;BME280;2902;42.130;24.732;2023-05-24T10:19:56;99236.22;;;32.86;27.74
5755;BME280;2902;42.130;24.732;2023-05-24T10:22:23;99229.03;;;33.09;27.32
5755;BME280;2902;42.130;24.732;2023-05-24T10:24:52;99239.22;;;33.08;27.32
5755;BME280;2902;42.130;24.732;2023-05-24T10:27:27;99230.06;;;33.04;27.49
5755;BME280;2902;42.130;24.732;2023-05-24T10:30:00;99228.44;;;33.15;27.78
5755;BME280;2902;42.130;24.732;2023-05-24T10:32:32;99230.94;;;33.20;28.03
5755;BME280;2902;42.130;24.732;2023-05-24T10:35:01;99225.75;;;33.19;27.14
5755;BME280;2902;42.130;24.732;2023-05-24T10:37:29;99226.72;;;33.11;28.42
5755;BME280;2902;42.130;24.732;2023-05-24T10:39:57;99221.19;;;32.83;27.70
5755;BME280;2902;42.130;24.732;2023-05-24T10:42:25;99210.53;;;32.70;27.30
5755;BME280;2902;42.130;24.732;2023-05-24T10:44:55;99217.47;;;32.16;28.21
5755;BME280;2902;42.130;24.732;2023-05-24T10:47:25;99218.97;;;32.25;28.17
5755;BME280;2902;42.130;24.732;2023-05-24T10:49:56;99217.13;;;32.17;28.54
5755;BME280;2902;42.130;24.732;2023-05-24T10:52:33;99200.66;;;32.41;28.19
5755;BME280;2902;42.130;24.732;2023-05-24T10:55:03;99201.31;;;32.50;28.07
5755;BME280;2902;42.130;24.732;2023-05-24T10:57:32;99206.81;;;32.50;28.08
5755;BME280;2902;42.130;24.732;2023-05-24T11:00:25;99199.03;;;32.28;27.91
5755;BME280;2902;42.130;24.732;2023-05-24T11:02:59;99191.25;;;32.06;28.79
5755;BME280;2902;42.130;24.732;2023-05-24T11:05:33;99185.97;;;32.13;28.55
5755;BME280;2902;42.130;24.732;2023-05-24T11:08:01;99172.72;;;31.79;28.56
5755;BME280;2902;42.130;24.732;2023-05-24T11:10:31;99186.22;;;32.08;29.07
5755;BME280;2902;42.130;24.732;2023-05-24T11:12:59;99182.53;;;32.28;28.15
5755;BME280;2902;42.130;24.732;2023-05-24T11:15:26;99186.66;;;32.34;28.33
5755;BME280;2902;42.130;24.732;2023-05-24T11:18:12;99192.28;;;32.14;28.42
5755;BME280;2902;42.130;24.732;2023-05-24T11:20:42;99191.25;;;32.18;27.65
5755;BME280;2902;42.130;24.732;2023-05-24T11:23:11;99189.66;;;32.29;27.66
5755;BME280;2902;42.130;24.732;2023-05-24T11:25:37;99188.28;;;32.35;27.19
5755;BME280;2902;42.130;24.732;2023-05-24T11:28:06;99188.72;;;32.25;27.84
5755;BME280;2902;42.130;24.732;2023-05-24T11:30:38;99182.78;;;32.35;27.40
5755;BME280;2902;42.130;24.732;2023-05-24T11:33:05;99189.88;;;32.36;28.19
5755;BME280;2902;42.130;24.732;2023-05-24T11:35:38;99186.91;;;32.41;26.43
5755;BME280;2902;42.130;24.732;2023-05-24T11:38:10;99181.88;;;32.31;24.57
5755;BME280;2902;42.130;24.732;2023-05-24T11:40:38;99182.53;;;32.28;25.42
5755;BME280;2902;42.130;24.732;2023-05-24T11:43:10;99135.59;;;32.09;24.88
5755;BME280;2902;42.130;24.732;2023-05-24T11:45:38;99170.75;;;32.40;25.04
5755;BME280;2902;42.130;24.732;2023-05-24T11:48:07;99178.53;;;32.14;24.82
5755;BME280;2902;42.130;24.732;2023-05-24T11:50:37;99178.88;;;31.88;24.75
5755;BME280;2902;42.130;24.732;2023-05-24T11:53:04;99175.56;;;31.83;25.66
5755;BME280;2902;42.130;24.732;2023-05-24T11:55:32;99181.50;;;31.73;26.83
5755;BME280;2902;42.130;24.732;2023-05-24T11:58:00;99167.16;;;31.67;27.08
5755;BME280;2902;42.130;24.732;2023-05-24T12:00:30;99164.06;;;31.12;29.69
5755;BME280;2902;42.130;24.732;2023-05-24T12:02:57;99157.06;;;30.82;30.51
5755;BME280;2902;42.130;24.732;2023-05-24T12:05:26;99161.41;;;30.83;30.84
5755;BME280;2902;42.130;24.732;2023-05-24T12:08:02;99146.78;;;30.59;31.09
5755;BME280;2902;42.130;24.732;2023-05-24T12:10:32;99133.16;;;30.71;31.11
5755;BME280;2902;42.130;24.732;2023-05-24T12:13:00;99133.81;;;30.47;31.35
5755;BME280;2902;42.130;24.732;2023-05-24T12:15:28;99122.56;;;30.40;31.48
5755;BME280;2902;42.130;24.732;2023-05-24T12:17:55;99119.00;;;30.40;31.72
5755;BME280;2902;42.130;24.732;2023-05-24T12:20:21;99124.81;;;30.38;30.83
5755;BME280;2902;42.130;24.732;2023-05-24T12:22:49;99121.09;;;30.22;30.66
5755;BME280;2902;42.130;24.732;2023-05-24T12:25:17;99121.63;;;30.36;30.98
5755;BME280;2902;42.130;24.732;2023-05-24T12:27:50;99129.25;;;30.31;30.23
5755;BME280;2902;42.130;24.732;2023-05-24T12:30:21;99120.56;;;30.29;31.47
5755;BME280;2902;42.130;24.732;2023-05-24T12:32:48;99121.22;;;30.46;31.09
5755;BME280;2902;42.130;24.732;2023-05-24T12:35:16;99110.94;;;30.43;32.15
5755;BME280;2902;42.130;24.732;2023-05-24T12:37:43;99129.22;;;30.10;31.29
5755;BME280;2902;42.130;24.732;2023-05-24T12:40:15;99116.72;;;30.21;31.38
5755;BME280;2902;42.130;24.732;2023-05-24T12:42:45;99125.25;;;30.28;31.08
5755;BME280;2902;42.130;24.732;2023-05-24T12:45:15;99117.88;;;30.20;30.47
5755;BME280;2902;42.130;24.732;2023-05-24T12:47:48;99116.06;;;30.24;30.16
5755;BME280;2902;42.130;24.732;2023-05-24T12:50:15;99116.78;;;30.13;30.58
5755;BME280;2902;42.130;24.732;2023-05-24T12:52:42;99132.66;;;29.99;30.32
5755;BME280;2902;42.130;24.732;2023-05-24T12:55:11;99114.00;;;29.63;30.70
5755;BME280;2902;42.130;24.732;2023-05-24T12:57:37;99128.44;;;29.72;31.15
5755;BME280;2902;42.130;24.732;2023-05-24T13:00:06;99109.13;;;29.77;31.58
5755;BME280;2902;42.130;24.732;2023-05-24T13:02:34;99126.09;;;29.91;30.87
5755;BME280;2902;42.130;24.732;2023-05-24T13:05:01;99122.69;;;29.94;31.15
5755;BME280;2902;42.130;24.732;2023-05-24T13:07:29;99126.50;;;29.81;30.27
5755;BME280;2902;42.130;24.732;2023-05-24T13:09:56;99100.94;;;29.69;31.10
5755;BME280;2902;42.130;24.732;2023-05-24T13:12:24;99124.88;;;29.80;31.50
5755;BME280;2902;42.130;24.732;2023-05-24T13:14:51;99118.59;;;29.80;30.47
5755;BME280;2902;42.130;24.732;2023-05-24T13:17:18;99117.31;;;29.77;31.56
5755;BME280;2902;42.130;24.732;2023-05-24T13:19:46;99115.25;;;29.74;31.14